Time;durP1;ratioP1;P1;durP2;ratioP2;P2;SDS_P1;SDS_P2;PMS_P1;PMS_P2;Temp;Humidity;BMP_temperature;BMP_pressure;BME280_temperature;BME280_humidity;BME280_pressure;Samples;Min_cycle;Max_cycle;Signal;HPM_P1;HPM_P2
2021/06/15 00:02:06;;;;;;;1999.90;999.90;;;9.40;99.90;;;;;;6124782;23;20575;-45
2021/06/15 00:04:32;;;;;;;1999.90;999.90;;;9.30;99.90;;;;;;6124890;23;20258;-45
2021/06/15 00:06:59;;;;;;;1999.90;999.90;;;9.30;99.90;;;;;;6125014;23;20559;-44
2021/06/15 00:09:26;;;;;;;1999.90;999.90;;;9.30;99.90;;;;;;6124643;23;20152;-56
2021/06/15 00:11:53;;;;;;;1999.90;999.90;;;9.30;99.90;;;;;;6124758;23;20174;-46
2021/06/15 00:14:20;;;;;;;1999.90;999.90;;;9.30;99.90;;;;;;6125032;23;20147;-49
2021/06/15 00:16:47;;;;;;;1999.90;999.90;;;9.30;99.90;;;;;;6125053;23;20148;-47
2021/06/15 00:19:14;;;;;;;1999.90;999.90;;;9.30;99.90;;;;;;6124880;23;20191;-47
2021/06/15 00:21:41;;;;;;;1999.90;999.90;;;9.30;99.90;;;;;;6124996;23;20148;-52
2021/06/15 00:24:08;;;;;;;1999.90;999.90;;;9.20;99.90;;;;;;6124514;23;20266;-54
2021/06/15 00:26:35;;;;;;;1999.90;999.90;;;9.30;99.90;;;;;;6124892;23;20644;-50
2021/06/15 00:29:01;;;;;;;1999.90;999.90;;;9.30;99.90;;;;;;6125088;23;20210;-59
2021/06/15 00:31:28;;;;;;;1999.90;999.90;;;9.30;99.90;;;;;;6124493;23;20179;-54
2021/06/15 00:33:55;;;;;;;1999.90;999.90;;;9.20;99.90;;;;;;6124806;23;20195;-55
2021/06/15 00:36:22;;;;;;;1999.90;999.90;;;9.20;99.90;;;;;;6124567;23;20163;-46
2021/06/15 00:38:49;;;;;;;1999.90;999.90;;;9.20;99.90;;;;;;6124359;23;20598;-53
2021/06/15 00:41:15;;;;;;;1999.90;999.90;;;9.20;99.90;;;;;;6124819;23;20152;-50
2021/06/15 00:43:42;;;;;;;1999.90;999.90;;;9.20;99.90;;;;;;6124392;23;20630;-51
2021/06/15 00:46:09;;;;;;;1999.90;999.90;;;9.20;99.90;;;;;;6124580;23;20148;-47
2021/06/15 00:48:37;;;;;;;1999.90;999.90;;;9.20;99.90;;;;;;6124796;23;20151;-51
2021/06/15 00:51:05;;;;;;;1999.90;999.90;;;9.20;99.90;;;;;;6124609;23;20588;-59
2021/06/15 00:53:34;;;;;;;1999.90;999.90;;;9.10;99.90;;;;;;6123921;23;20202;-46
2021/06/15 00:56:01;;;;;;;1999.90;999.90;;;9.10;99.90;;;;;;6124492;23;20155;-59
2021/06/15 00:58:28;;;;;;;1999.90;999.90;;;9.10;99.90;;;;;;6124471;23;20151;-45
2021/06/15 01:00:55;;;;;;;1999.90;999.90;;;9.10;99.90;;;;;;6124207;23;20169;-58
2021/06/15 01:03:24;;;;;;;1999.90;999.90;;;9.20;99.90;;;;;;6124603;23;20258;-58
2021/06/15 01:05:52;;;;;;;1999.90;999.90;;;9.20;99.90;;;;;;6124186;23;20222;-58
2021/06/15 01:08:47;;;;;;;1999.90;999.90;;;9.30;99.90;;;;;;6124215;23;20222;-47
2021/06/15 01:11:34;;;;;;;1999.90;999.90;;;9.20;99.90;;;;;;6124742;23;20136;-55
2021/06/15 01:14:24;;;;;;;1999.90;999.90;;;9.30;99.90;;;;;;6124178;23;20139;-59
2021/06/15 01:16:57;;;;;;;1999.90;999.90;;;9.30;99.90;;;;;;6124317;23;20136;-59
2021/06/15 01:19:36;;;;;;;1999.90;999.90;;;9.40;99.90;;;;;;6124141;23;20140;-52
2021/06/15 01:22:39;;;;;;;1999.90;999.90;;;9.30;99.90;;;;;;6123992;23;20150;-52
2021/06/15 01:25:08;;;;;;;1999.90;999.90;;;9.30;99.90;;;;;;6124469;23;20143;-47
2021/06/15 01:27:59;;;;;;;1999.90;999.90;;;9.20;99.90;;;;;;6124090;23;20225;-47
2021/06/15 01:30:34;;;;;;;1999.90;999.90;;;9.30;99.90;;;;;;6123907;23;20162;-55
2021/06/15 01:33:04;;;;;;;1999.90;999.90;;;9.20;99.90;;;;;;6124748;23;20189;-54
2021/06/15 01:35:33;;;;;;;1999.90;999.90;;;9.20;99.90;;;;;;6123515;23;20165;-53
2021/06/15 01:38:03;;;;;;;1999.90;999.90;;;9.30;99.90;;;;;;6123936;23;20151;-45
2021/06/15 01:40:58;;;;;;;1999.90;999.90;;;9.40;99.90;;;;;;6124018;23;20131;-55
2021/06/15 01:43:31;;;;;;;1999.90;999.90;;;9.50;99.90;;;;;;6112721;23;20194;-46
2021/06/15 01:45:59;;;;;;;1999.90;999.90;;;9.50;99.90;;;;;;6123993;23;20467;-46
2021/06/15 01:49:03;;;;;;;1999.90;999.90;;;9.60;99.90;;;;;;6123540;23;20588;-46
2021/06/15 01:51:31;;;;;;;1999.90;999.90;;;9.60;99.90;;;;;;6123486;23;20206;-55
2021/06/15 01:54:09;;;;;;;1999.90;999.90;;;9.70;99.90;;;;;;6124122;23;20199;-45
2021/06/15 01:56:39;;;;;;;1999.90;999.90;;;9.70;99.90;;;;;;6123470;23;20154;-59
2021/06/15 01:59:09;;;;;;;1999.90;999.90;;;9.70;99.90;;;;;;6123740;23;20147;-57
2021/06/15 02:01:39;;;;;;;1999.90;999.90;;;9.70;99.90;;;;;;6124079;23;20150;-56
2021/06/15 02:04:07;;;;;;;1999.90;999.90;;;9.70;99.90;;;;;;6123532;23;20505;-48
2021/06/15 02:06:35;;;;;;;1999.90;999.90;;;9.80;99.90;;;;;;6123797;23;20147;-50
2021/06/15 02:09:05;;;;;;;1999.90;999.90;;;9.80;99.90;;;;;;6123944;23;20151;-46
2021/06/15 02:11:33;;;;;;;1999.90;999.90;;;9.80;99.90;;;;;;6123888;23;20144;-58
2021/06/15 02:14:03;;;;;;;1999.90;999.90;;;9.80;99.90;;;;;;6123684;23;20175;-54
2021/06/15 02:16:31;;;;;;;1999.90;999.90;;;9.80;99.90;;;;;;6123702;23;20199;-47
2021/06/15 02:18:58;;;;;;;1999.90;999.90;;;9.80;99.90;;;;;;6097587;23;20158;-51
2021/06/15 02:21:26;;;;;;;1999.90;999.90;;;9.90;99.90;;;;;;6123646;23;20147;-56
2021/06/15 02:23:58;;;;;;;1999.90;999.90;;;9.80;99.90;;;;;;6123720;23;20189;-46
2021/06/15 02:26:26;;;;;;;1999.90;999.90;;;9.90;99.90;;;;;;6123447;23;20139;-46
2021/06/15 02:28:53;;;;;;;1999.90;999.90;;;9.90;99.90;;;;;;6123728;23;20582;-49
2021/06/15 02:31:36;;;;;;;1999.90;999.90;;;9.80;99.90;;;;;;6123631;23;20230;-54
2021/06/15 02:34:07;;;;;;;1999.90;999.90;;;9.80;99.90;;;;;;6123839;23;20140;-46
2021/06/15 02:36:36;;;;;;;1999.90;999.90;;;9.70;99.90;;;;;;6123579;23;20167;-48
2021/06/15 02:39:08;;;;;;;1999.90;999.90;;;9.70;99.90;;;;;;6123511;23;20151;-57
2021/06/15 02:41:37;;;;;;;1999.90;999.90;;;9.70;99.90;;;;;;6123146;23;20140;-59
2021/06/15 02:44:06;;;;;;;1999.90;999.90;;;9.70;99.90;;;;;;6123575;23;20193;-57
2021/06/15 02:46:36;;;;;;;1999.90;999.90;;;9.70;99.90;;;;;;6122825;23;20585;-58
2021/06/15 02:49:12;;;;;;;1999.90;999.90;;;9.70;99.90;;;;;;6123431;23;20178;-50
2021/06/15 02:51:47;;;;;;;1999.90;999.90;;;9.70;99.90;;;;;;6123600;23;20175;-47
2021/06/15 02:54:20;;;;;;;1999.90;999.90;;;9.70;99.90;;;;;;6123179;23;20182;-56
2021/06/15 02:56:51;;;;;;;1999.90;999.90;;;9.70;99.90;;;;;;6123193;23;20642;-52
2021/06/15 02:59:20;;;;;;;1999.90;999.90;;;9.50;99.90;;;;;;6098537;23;20261;-55
2021/06/15 03:01:48;;;;;;;1999.90;999.90;;;9.60;99.90;;;;;;6125159;23;20151;-47
2021/06/15 03:04:15;;;;;;;1999.90;999.90;;;9.60;99.90;;;;;;6125097;23;20280;-46
2021/06/15 03:06:42;;;;;;;1999.90;999.90;;;9.60;99.90;;;;;;6125310;23;20147;-54
2021/06/15 03:09:10;;;;;;;1999.90;999.90;;;9.60;99.90;;;;;;6125306;23;20158;-53
2021/06/15 03:11:55;;;;;;;1999.90;999.90;;;9.60;99.90;;;;;;6125530;23;20175;-46
2021/06/15 03:14:25;;;;;;;1999.90;999.90;;;9.60;99.90;;;;;;6125482;23;20150;-59
2021/06/15 03:16:57;;;;;;;1999.90;999.90;;;9.70;99.90;;;;;;6125139;23;20154;-55
2021/06/15 03:19:52;;;;;;;1999.90;999.90;;;9.70;99.90;;;;;;6125628;23;20583;-45
2021/06/15 03:22:34;;;;;;;1999.90;999.90;;;9.70;99.90;;;;;;6119829;23;20170;-56
2021/06/15 03:25:04;;;;;;;1999.90;999.90;;;9.70;99.90;;;;;;6125268;23;20210;-58
2021/06/15 03:27:44;;;;;;;1999.90;999.90;;;9.70;99.90;;;;;;6125176;23;20282;-48
2021/06/15 03:30:12;;;;;;;1999.90;999.90;;;9.70;99.90;;;;;;6125097;23;20170;-49
2021/06/15 03:33:03;;;;;;;1999.90;999.90;;;9.80;99.90;;;;;;6125284;23;20232;-55
2021/06/15 03:35:32;;;;;;;1999.90;999.90;;;9.80;99.90;;;;;;6125147;23;20143;-51
2021/06/15 03:38:02;;;;;;;1999.90;999.90;;;9.70;99.90;;;;;;6125834;23;20162;-48
2021/06/15 03:40:33;;;;;;;1999.90;999.90;;;9.70;99.90;;;;;;6124871;23;20212;-50
2021/06/15 03:43:01;;;;;;;1999.90;999.90;;;9.70;99.90;;;;;;6125207;23;20243;-46
2021/06/15 03:45:33;;;;;;;1999.90;999.90;;;9.60;99.90;;;;;;6124568;23;20187;-46
2021/06/15 03:48:02;;;;;;;1999.90;999.90;;;9.70;99.90;;;;;;6125294;23;20147;-49
2021/06/15 03:50:29;;;;;;;1999.90;999.90;;;9.60;99.90;;;;;;6124776;23;20166;-59
2021/06/15 03:52:58;;;;;;;1999.90;999.90;;;9.70;99.90;;;;;;6124667;23;20195;-57
2021/06/15 03:55:30;;;;;;;1999.90;999.90;;;9.70;99.90;;;;;;6125519;23;20159;-51
2021/06/15 03:57:59;;;;;;;1999.90;999.90;;;9.70;99.90;;;;;;6125035;23;20155;-46
2021/06/15 04:00:28;;;;;;;1999.90;999.90;;;9.70;99.90;;;;;;6124788;23;20155;-49
2021/06/15 04:02:57;;;;;;;1999.90;999.90;;;9.80;99.90;;;;;;6124932;23;20189;-59
2021/06/15 04:05:29;;;;;;;1999.90;999.90;;;9.80;99.90;;;;;;6124498;23;20163;-46
2021/06/15 04:07:59;;;;;;;1999.90;999.90;;;9.80;99.90;;;;;;6124648;23;20139;-52
2021/06/15 04:10:28;;;;;;;1999.90;999.90;;;9.80;99.90;;;;;;6124455;23;20190;-58
2021/06/15 04:12:56;;;;;;;1999.90;999.90;;;9.90;99.90;;;;;;6125001;23;20448;-45
2021/06/15 04:15:26;;;;;;;1999.90;999.90;;;9.90;99.90;;;;;;6124855;23;20155;-46
2021/06/15 04:17:57;;;;;;;1999.90;999.90;;;10.00;99.90;;;;;;6125017;23;20280;-45
2021/06/15 04:20:30;;;;;;;1999.90;999.90;;;10.00;99.90;;;;;;6124934;23;20136;-57
2021/06/15 04:23:01;;;;;;;1999.90;999.90;;;10.00;99.90;;;;;;6124800;23;20167;-48
2021/06/15 04:25:34;;;;;;;1999.90;999.90;;;10.00;99.90;;;;;;6125021;23;20155;-52
2021/06/15 04:28:01;;;;;;;1999.90;999.90;;;10.00;99.90;;;;;;6124740;23;20147;-51
2021/06/15 04:30:30;;;;;;;1999.90;999.90;;;10.00;99.90;;;;;;6124821;23;20575;-48
2021/06/15 04:33:00;;;;;;;1999.90;999.90;;;10.00;99.90;;;;;;6124583;23;20159;-47
2021/06/15 04:35:31;;;;;;;1999.90;999.90;;;10.10;99.90;;;;;;6124314;23;20147;-50
2021/06/15 04:38:03;;;;;;;1999.90;999.90;;;10.10;99.90;;;;;;6124796;23;20139;-52
2021/06/15 04:40:37;;;;;;;1999.90;999.90;;;10.10;99.90;;;;;;6124427;23;20141;-53
2021/06/15 04:43:46;;;;;;;1999.90;999.90;;;10.10;99.90;;;;;;6124355;23;20183;-46
2021/06/15 04:46:18;;;;;;;1999.90;999.90;;;10.10;99.90;;;;;;6122001;23;20586;-51
2021/06/15 04:49:16;;;;;;;1999.90;999.90;;;10.00;99.90;;;;;;6124060;23;20146;-56
2021/06/15 04:51:45;;;;;;;1999.90;999.90;;;10.00;99.90;;;;;;6105138;23;20151;-49
2021/06/15 04:54:13;;;;;;;1999.90;999.90;;;9.90;99.90;;;;;;6123995;23;20183;-46
2021/06/15 04:56:45;;;;;;;1999.90;999.90;;;10.00;99.90;;;;;;6123857;23;20149;-55
2021/06/15 04:59:12;;;;;;;1999.90;999.90;;;9.90;99.90;;;;;;6124280;23;20210;-52
2021/06/15 05:01:42;;;;;;;1999.90;999.90;;;10.00;99.90;;;;;;6123951;23;20158;-54
2021/06/15 05:04:09;;;;;;;1999.90;999.90;;;10.00;99.90;;;;;;6123918;23;20186;-53
2021/06/15 05:06:43;;;;;;;1999.90;999.90;;;10.00;99.90;;;;;;6124215;23;20151;-54
2021/06/15 05:09:10;;;;;;;1999.90;999.90;;;10.00;99.90;;;;;;6124102;23;20131;-48
2021/06/15 05:11:38;;;;;;;1999.90;999.90;;;9.90;99.90;;;;;;6123795;23;20151;-46
2021/06/15 05:14:10;;;;;;;1999.90;999.90;;;9.90;99.90;;;;;;6124214;23;20226;-52
2021/06/15 05:16:39;;;;;;;1999.90;999.90;;;9.80;99.90;;;;;;6123655;23;20140;-48
2021/06/15 05:19:06;;;;;;;1999.90;999.90;;;9.90;99.90;;;;;;6123709;23;20221;-47
2021/06/15 05:21:59;;;;;;;1999.90;999.90;;;9.80;99.90;;;;;;6124111;23;20599;-51
2021/06/15 05:24:47;;;;;;;1999.90;999.90;;;9.80;99.90;;;;;;6111284;23;20187;-46
2021/06/15 05:27:14;;;;;;;1999.90;999.90;;;9.90;99.90;;;;;;6123595;23;20540;-51
2021/06/15 05:29:41;;;;;;;1999.90;999.90;;;9.90;99.90;;;;;;6123785;23;20147;-47
2021/06/15 05:32:10;;;;;;;1999.90;999.90;;;9.90;99.90;;;;;;6123322;23;20602;-53
2021/06/15 05:34:37;;;;;;;1999.90;999.90;;;9.90;99.90;;;;;;6123795;23;20531;-59
2021/06/15 05:37:06;;;;;;;1999.90;999.90;;;9.90;99.90;;;;;;6123470;23;20147;-47
2021/06/15 05:39:34;;;;;;;1999.90;999.90;;;10.00;99.90;;;;;;6123352;23;20147;-52
2021/06/15 05:42:01;;;;;;;1999.90;999.90;;;10.00;99.90;;;;;;6123876;23;20147;-56
2021/06/15 05:44:28;;;;;;;1999.90;999.90;;;10.10;99.90;;;;;;6123216;23;20587;-47
2021/06/15 05:46:55;;;;;;;1999.90;999.90;;;10.20;99.90;;;;;;6122869;23;20151;-47
2021/06/15 05:49:21;;;;;;;1999.90;999.90;;;10.40;99.90;;;;;;6123729;23;20163;-54
2021/06/15 05:51:50;;;;;;;1999.90;999.90;;;10.40;99.90;;;;;;6123573;23;20160;-52
2021/06/15 05:54:17;;;;;;;1999.90;999.90;;;10.40;99.90;;;;;;6123016;23;20499;-48
2021/06/15 05:56:44;;;;;;;1999.90;999.90;;;10.50;99.90;;;;;;6123569;23;20162;-48
2021/06/15 05:59:10;;;;;;;1999.90;999.90;;;10.50;99.90;;;;;;6123011;23;20155;-45
2021/06/15 06:01:39;;;;;;;1999.90;999.90;;;10.50;99.90;;;;;;6123223;23;20156;-46
2021/06/15 06:04:08;;;;;;;1999.90;999.90;;;10.60;99.90;;;;;;6123195;23;20186;-51
2021/06/15 06:09:20;;;;;;;1999.90;999.90;;;10.70;99.90;;;;;;6123503;23;20202;-49
2021/06/15 06:11:47;;;;;;;1999.90;999.90;;;10.80;99.90;;;;;;6123544;23;20610;-44
2021/06/15 06:14:14;;;;;;;1999.90;999.90;;;10.80;99.90;;;;;;6123136;23;20250;-49
2021/06/15 06:16:42;;;;;;;1999.90;999.90;;;10.90;99.90;;;;;;6121824;23;20151;-59
2021/06/15 06:19:11;;;;;;;1999.90;999.90;;;10.90;99.90;;;;;;6123760;23;20164;-43
2021/06/15 06:21:38;;;;;;;1999.90;999.90;;;11.00;99.90;;;;;;6122553;23;20474;-58
2021/06/15 06:24:07;;;;;;;1999.90;999.90;;;11.00;99.90;;;;;;6123167;23;20186;-56
2021/06/15 06:26:34;;;;;;;1999.90;999.90;;;11.00;99.90;;;;;;6122820;23;20610;-46
2021/06/15 06:29:02;;;;;;;1999.90;999.90;;;11.10;99.90;;;;;;6122909;23;20551;-47
2021/06/15 06:31:29;;;;;;;1999.90;999.90;;;11.10;99.90;;;;;;6122950;23;20484;-44
2021/06/15 06:33:56;;;;;;;1999.90;999.90;;;11.20;99.90;;;;;;6123001;23;20574;-54
2021/06/15 06:36:23;;;;;;;1999.90;999.90;;;11.20;99.90;;;;;;6123077;23;20152;-45
2021/06/15 06:38:52;;;;;;;1999.90;999.90;;;11.30;99.90;;;;;;6123226;23;20154;-49
2021/06/15 06:41:20;;;;;;;1999.90;999.90;;;11.30;99.90;;;;;;6122980;23;20525;-49
2021/06/15 06:43:48;;;;;;;1999.90;999.90;;;11.40;99.90;;;;;;6122896;23;20210;-46
2021/06/15 06:46:14;;;;;;;1999.90;999.90;;;11.30;99.90;;;;;;6123101;23;20218;-54
2021/06/15 06:48:41;;;;;;;1999.90;999.90;;;11.10;99.90;;;;;;6122939;23;20147;-45
2021/06/15 06:51:08;;;;;;;1999.90;999.90;;;11.10;99.90;;;;;;6123008;23;20471;-45
2021/06/15 06:53:36;;;;;;;1999.90;999.90;;;10.90;99.90;;;;;;6122935;23;20202;-48
2021/06/15 06:56:06;;;;;;;1999.90;999.90;;;11.00;99.90;;;;;;6122728;23;20634;-56
2021/06/15 06:58:33;;;;;;;1999.90;999.90;;;11.00;99.90;;;;;;6122556;23;20225;-47
2021/06/15 07:01:02;;;;;;;1999.90;999.90;;;11.00;99.90;;;;;;6123408;23;20230;-44
2021/06/15 07:03:29;;;;;;;1999.90;999.90;;;11.00;99.90;;;;;;6122811;23;20253;-44
2021/06/15 07:05:55;;;;;;;1999.90;999.90;;;11.00;99.90;;;;;;6122653;23;20150;-45
2021/06/15 07:08:24;;;;;;;1999.90;999.90;;;11.10;99.90;;;;;;6123578;23;20227;-48
2021/06/15 07:10:51;;;;;;;1999.90;999.90;;;11.10;99.90;;;;;;6122605;23;20155;-50
2021/06/15 07:13:18;;;;;;;1999.90;999.90;;;11.20;99.90;;;;;;6123870;23;20147;-43
2021/06/15 07:15:45;;;;;;;1999.90;999.90;;;11.30;99.90;;;;;;6123636;23;20152;-44
2021/06/15 07:18:12;;;;;;;1999.90;999.90;;;11.30;99.90;;;;;;6122584;23;20155;-54
2021/06/15 07:20:39;;;;;;;1999.90;999.90;;;11.40;99.90;;;;;;6123133;23;20155;-41
2021/06/15 07:23:06;;;;;;;1999.90;999.90;;;11.40;99.90;;;;;;6122648;23;20577;-45
2021/06/15 07:25:33;;;;;;;1999.90;999.90;;;11.60;99.90;;;;;;6122591;23;20511;-52
2021/06/15 07:28:00;;;;;;;1999.90;999.90;;;11.60;99.90;;;;;;6123247;23;20147;-51
2021/06/15 07:30:27;;;;;;;1999.90;999.90;;;12.30;99.90;;;;;;6122223;23;20154;-49
2021/06/15 07:32:58;;;;;;;1999.90;999.90;;;12.30;99.90;;;;;;6122463;23;20148;-50
2021/06/15 07:35:26;;;;;;;1999.90;999.90;;;12.20;99.90;;;;;;6122456;23;20150;-58
2021/06/15 07:37:53;;;;;;;1999.90;999.90;;;12.20;99.90;;;;;;6123057;23;20268;-44
2021/06/15 07:40:24;;;;;;;1999.90;999.90;;;12.20;99.90;;;;;;6122785;23;20174;-46
2021/06/15 07:42:58;;;;;;;1999.90;999.90;;;12.20;99.90;;;;;;6122976;23;20189;-46
2021/06/15 07:45:28;;;;;;;1999.90;999.90;;;13.40;99.90;;;;;;6122993;23;20206;-46
2021/06/15 07:47:56;;;;;;;1999.90;999.90;;;13.20;99.90;;;;;;6124629;23;20151;-48
2021/06/15 07:50:23;;;;;;;1999.90;999.90;;;13.00;99.90;;;;;;6124214;23;20234;-48
2021/06/15 07:52:50;;;;;;;1999.90;999.90;;;12.80;99.90;;;;;;6123775;23;20198;-47
2021/06/15 07:55:18;;;;;;;1999.90;999.90;;;12.50;99.90;;;;;;6123894;23;20202;-49
2021/06/15 07:57:47;;;;;;;1999.90;999.90;;;12.50;99.90;;;;;;6124597;23;20354;-45
2021/06/15 08:00:15;;;;;;;1999.90;999.90;;;13.30;99.90;;;;;;6124340;23;20156;-42
2021/06/15 08:02:44;;;;;;;1999.90;999.90;;;13.60;99.90;;;;;;6123906;23;20233;-45
2021/06/15 08:05:13;;;;;;;1999.90;999.90;;;14.30;99.90;;;;;;6098653;23;20193;-42
2021/06/15 08:07:41;;;;;;;1999.90;999.90;;;14.40;99.90;;;;;;6124056;23;20238;-47
2021/06/15 08:10:09;;;;;;;1999.90;999.90;;;14.20;99.90;;;;;;6122810;23;20587;-54
2021/06/15 08:12:36;;;;;;;1999.90;999.90;;;14.30;99.90;;;;;;6121812;23;20151;-48
2021/06/15 08:15:04;;;;;;;1999.90;999.90;;;14.30;99.90;;;;;;6123908;23;20226;-59
2021/06/15 08:17:31;;;;;;;1999.90;999.90;;;14.20;99.90;;;;;;6124336;23;20226;-52
2021/06/15 08:19:58;;;;;;;1999.90;999.90;;;14.00;99.90;;;;;;6124392;23;20143;-50
2021/06/15 08:22:25;;;;;;;1999.90;999.90;;;15.00;99.90;;;;;;6124004;23;20163;-65
2021/06/15 08:24:52;;;;;;;1999.90;999.90;;;14.90;99.90;;;;;;6123765;23;20158;-48
2021/06/15 08:27:19;;;;;;;1999.90;999.90;;;14.70;99.90;;;;;;6122365;23;20151;-54
2021/06/15 08:29:46;;;;;;;1999.90;999.90;;;14.60;99.90;;;;;;6123821;23;20583;-47
2021/06/15 08:32:13;;;;;;;1999.90;999.90;;;14.70;99.90;;;;;;6123915;23;20202;-54
2021/06/15 08:34:41;;;;;;;1999.90;999.90;;;15.30;99.90;;;;;;6124831;23;20535;-52
2021/06/15 08:37:08;;;;;;;1999.90;999.90;;;15.50;99.90;;;;;;6124058;23;20159;-48
2021/06/15 08:39:35;;;;;;;1999.90;999.90;;;15.50;99.90;;;;;;6123763;23;20147;-47
2021/06/15 08:42:02;;;;;;;1999.90;999.90;;;15.40;99.90;;;;;;6124136;23;20143;-48
2021/06/15 08:44:29;;;;;;;1999.90;999.90;;;15.20;99.90;;;;;;6097761;23;20193;-51
2021/06/15 08:46:56;;;;;;;1999.90;999.90;;;15.10;99.90;;;;;;6124122;23;20150;-53
2021/06/15 08:49:23;;;;;;;1999.90;999.90;;;15.10;99.90;;;;;;6124212;23;20154;-46
2021/06/15 08:51:50;;;;;;;1999.90;999.90;;;15.10;99.90;;;;;;6123732;23;20165;-50
2021/06/15 08:54:19;;;;;;;1999.90;999.90;;;15.00;99.90;;;;;;6123500;23;20644;-49
2021/06/15 08:56:46;;;;;;;1999.90;999.90;;;14.40;99.90;;;;;;6122134;23;20155;-49
2021/06/15 08:59:22;;;;;;;1999.90;999.90;;;15.20;99.90;;;;;;6122197;23;20152;-46
2021/06/15 09:01:57;;;;;;;1999.90;999.90;;;15.10;99.90;;;;;;6122652;23;20151;-47
2021/06/15 09:04:26;;;;;;;1999.90;999.90;;;15.90;99.90;;;;;;6123745;23;20178;-46
2021/06/15 09:06:57;;;;;;;1999.90;999.90;;;16.10;99.90;;;;;;6120558;23;20175;-55
2021/06/15 09:09:47;;;;;;;1999.90;999.90;;;16.20;99.90;;;;;;6121435;23;20154;-48
2021/06/15 09:12:16;;;;;;;1999.90;999.90;;;16.30;99.90;;;;;;6096395;23;20478;-50
2021/06/15 09:14:46;;;;;;;1999.90;999.90;;;16.40;99.90;;;;;;6123507;23;20155;-48
2021/06/15 09:17:33;;;;;;;1999.90;999.90;;;16.10;99.90;;;;;;6123860;23;20185;-55
2021/06/15 09:20:13;;;;;;;1999.90;999.90;;;16.80;99.90;;;;;;6123425;23;20147;-47
2021/06/15 09:22:40;;;;;;;1999.90;999.90;;;17.00;99.90;;;;;;6123606;23;20175;-48
2021/06/15 09:25:11;;;;;;;1999.90;999.90;;;17.20;99.90;;;;;;6123454;23;20163;-46
2021/06/15 09:27:40;;;;;;;1999.90;999.90;;;17.80;99.90;;;;;;6123755;23;20215;-50
2021/06/15 09:30:13;;;;;;;1999.90;999.90;;;18.00;99.90;;;;;;6123405;23;20202;-53
2021/06/15 09:32:43;;;;;;;1999.90;999.90;;;17.90;99.90;;;;;;6123907;23;20146;-50
2021/06/15 09:35:17;;;;;;;1999.90;999.90;;;17.30;99.90;;;;;;6121639;23;20179;-47
2021/06/15 09:37:47;;;;;;;1999.90;999.90;;;17.00;99.90;;;;;;6123762;23;20147;-47
2021/06/15 09:40:18;;;;;;;1999.90;999.90;;;16.90;99.90;;;;;;6123079;23;20155;-52
2021/06/15 09:43:11;;;;;;;1999.90;999.90;;;16.40;99.90;;;;;;6123966;23;20209;-51
2021/06/15 09:45:48;;;;;;;1999.90;999.90;;;16.10;99.90;;;;;;6121683;23;20148;-53
2021/06/15 09:48:29;;;;;;;1999.90;999.90;;;16.20;99.90;;;;;;6095043;23;20285;-49
2021/06/15 09:51:16;;;;;;;1999.90;999.90;;;15.80;99.90;;;;;;6123983;23;20159;-50
2021/06/15 09:53:52;;;;;;;1999.90;999.90;;;15.70;99.90;;;;;;6120862;23;20198;-51
2021/06/15 09:56:19;;;;;;;1999.90;999.90;;;15.60;99.90;;;;;;6122780;23;20155;-50
2021/06/15 09:58:52;;;;;;;1999.90;999.90;;;15.50;99.90;;;;;;6123687;23;20218;-46
2021/06/15 10:01:35;;;;;;;1999.90;999.90;;;15.40;99.90;;;;;;6121831;23;20147;-48
2021/06/15 10:04:13;;;;;;;1999.90;999.90;;;15.60;99.90;;;;;;6121960;23;20240;-46
2021/06/15 10:06:43;;;;;;;1999.90;999.90;;;15.70;99.90;;;;;;6122760;23;20139;-47
2021/06/15 10:09:10;;;;;;;1999.90;999.90;;;15.80;99.90;;;;;;6122531;23;20491;-49
2021/06/15 10:11:38;;;;;;;1999.90;999.90;;;16.10;99.90;;;;;;6123180;23;20158;-52
2021/06/15 10:14:05;;;;;;;1999.90;999.90;;;16.20;99.90;;;;;;6123202;23;20459;-48
2021/06/15 10:16:33;;;;;;;1999.90;999.90;;;15.90;99.90;;;;;;6122954;23;20151;-48
2021/06/15 10:19:01;;;;;;;1999.90;999.90;;;15.90;99.90;;;;;;6123360;23;20147;-46
2021/06/15 10:21:34;;;;;;;1999.90;999.90;;;15.80;99.90;;;;;;6123169;23;20155;-51
2021/06/15 10:24:09;;;;;;;1999.90;999.90;;;15.90;99.90;;;;;;6122647;23;20182;-50
2021/06/15 10:26:37;;;;;;;1999.90;999.90;;;16.10;99.90;;;;;;6122796;23;20166;-45
2021/06/15 10:29:13;;;;;;;1999.90;999.90;;;15.80;99.90;;;;;;6097399;23;20214;-51
2021/06/15 10:31:44;;;;;;;1999.90;999.90;;;15.70;99.90;;;;;;6096930;23;20645;-47
2021/06/15 10:34:11;;;;;;;1999.90;999.90;;;15.80;99.90;;;;;;6097878;23;20186;-48
2021/06/15 10:36:47;;;;;;;1999.90;999.90;;;16.10;99.90;;;;;;6122956;23;20148;-47
2021/06/15 10:39:20;;;;;;;1999.90;999.90;;;16.40;99.90;;;;;;6123099;23;20586;-46
2021/06/15 10:41:47;;;;;;;1999.90;999.90;;;16.40;99.90;;;;;;6123166;23;20162;-48
2021/06/15 10:44:15;;;;;;;1999.90;999.90;;;16.90;99.90;;;;;;6123222;23;20194;-47
2021/06/15 10:46:45;;;;;;;1999.90;999.90;;;17.00;99.90;;;;;;6122638;23;20155;-50
2021/06/15 10:49:14;;;;;;;1999.90;999.90;;;17.50;99.90;;;;;;6123093;23;20148;-52
2021/06/15 10:51:44;;;;;;;1999.90;999.90;;;17.80;99.90;;;;;;6122508;23;20162;-49
2021/06/15 10:54:33;;;;;;;1999.90;999.90;;;18.20;99.90;;;;;;6096504;23;20641;-45
2021/06/15 10:57:21;;;;;;;1999.90;999.90;;;18.40;99.90;;;;;;6122440;23;20151;-49
2021/06/15 10:59:58;;;;;;;1999.90;999.90;;;18.60;99.90;;;;;;6093141;23;20449;-50
2021/06/15 11:02:31;;;;;;;1999.90;999.90;;;18.50;99.90;;;;;;6120896;23;20214;-54
2021/06/15 11:04:59;;;;;;;1999.90;999.90;;;18.80;99.90;;;;;;6098382;23;20178;-49
2021/06/15 11:07:39;;;;;;;1999.90;999.90;;;19.40;99.90;;;;;;6121858;23;20158;-48
2021/06/15 11:10:12;;;;;;;1999.90;999.90;;;19.90;97.60;;;;;;6118331;23;20151;-52
2021/06/15 11:12:50;;;;;;;1999.90;999.90;;;20.00;97.20;;;;;;6122176;23;20155;-48
2021/06/15 11:15:26;;;;;;;1999.90;999.90;;;19.90;98.10;;;;;;6121922;23;20143;-51
2021/06/15 11:17:56;;;;;;;1999.90;999.90;;;19.70;97.20;;;;;;6122638;23;20494;-48
2021/06/15 11:20:38;;;;;;;1999.90;999.90;;;19.40;97.60;;;;;;6120635;23;20132;-50
2021/06/15 11:23:22;;;;;;;1999.90;999.90;;;19.00;98.80;;;;;;6124048;23;20189;-49
2021/06/15 11:26:02;;;;;;;1999.90;999.90;;;18.70;99.90;;;;;;6123783;23;20150;-50
2021/06/15 11:28:43;;;;;;;1999.90;999.90;;;19.00;99.60;;;;;;6123724;23;20150;-49
2021/06/15 11:31:20;;;;;;;1999.90;999.90;;;19.20;99.20;;;;;;6124395;23;20147;-49
2021/06/15 11:34:03;;;;;;;1999.90;999.90;;;19.40;97.90;;;;;;6124407;23;20165;-55
2021/06/15 11:36:56;;;;;;;1999.90;999.90;;;19.50;97.60;;;;;;6123871;23;20155;-50
2021/06/15 11:39:24;;;;;;;1999.90;999.90;;;19.40;97.70;;;;;;6120069;23;20151;-57
2021/06/15 11:42:09;;;;;;;1999.90;999.90;;;19.30;97.20;;;;;;6123854;23;20229;-54
2021/06/15 11:45:00;;;;;;;1999.90;999.90;;;19.30;97.40;;;;;;6124208;23;20187;-51
2021/06/15 11:47:48;;;;;;;1999.90;999.90;;;19.30;98.40;;;;;;6124596;23;20211;-53
2021/06/15 11:50:32;;;;;;;1999.90;999.90;;;19.60;96.60;;;;;;6122842;23;20230;-51
2021/06/15 11:53:09;;;;;;;1999.90;999.90;;;19.40;97.40;;;;;;6124800;23;20194;-56
2021/06/15 11:55:41;;;;;;;1999.90;999.90;;;19.50;98.90;;;;;;6124397;23;20131;-47
2021/06/15 11:58:12;;;;;;;1999.90;999.90;;;20.00;97.20;;;;;;6124701;23;20155;-51
2021/06/15 12:01:06;;;;;;;1999.90;999.90;;;20.30;96.20;;;;;;6123871;23;20143;-55
2021/06/15 12:03:46;;;;;;;1999.90;999.90;;;20.50;94.80;;;;;;6123460;23;20182;-49
2021/06/15 12:06:17;;;;;;;1999.90;999.90;;;20.50;95.00;;;;;;6123389;23;20155;-50
2021/06/15 12:08:47;;;;;;;1999.90;999.90;;;20.60;94.90;;;;;;6123902;23;20474;-47
2021/06/15 12:11:16;;;;;;;1999.90;999.90;;;20.20;95.00;;;;;;6123789;23;20486;-46
2021/06/15 12:13:46;;;;;;;1999.90;999.90;;;20.10;96.40;;;;;;6124203;23;20230;-45
2021/06/15 12:16:26;;;;;;;1999.90;999.90;;;19.90;96.60;;;;;;6123859;23;20154;-50
2021/06/15 12:18:55;;;;;;;1999.90;999.90;;;19.60;97.50;;;;;;6123730;23;20737;-45
2021/06/15 12:21:25;;;;;;;1999.90;999.90;;;19.50;98.50;;;;;;6123277;23;20158;-45
2021/06/15 12:23:56;;;;;;;1999.90;999.90;;;19.70;98.30;;;;;;6124286;23;20187;-47
2021/06/15 12:26:40;;;;;;;1999.90;999.90;;;19.60;97.80;;;;;;6124188;23;20219;-45
2021/06/15 12:29:10;;;;;;;1999.90;999.90;;;19.70;98.20;;;;;;6124111;23;20151;-49